sensor_id;sensor_type;location;lat;lon;timestamp;temperature;humidity
71627;DHT22;59475;52.464;13.590;2022-10-31T00:00:16;8.72;95.24
71627;DHT22;59475;52.464;13.590;2022-10-31T00:02:42;8.67;95.15
71627;DHT22;59475;52.464;13.590;2022-10-31T00:05:07;8.68;95.30
71627;DHT22;59475;52.464;13.590;2022-10-31T00:07:33;8.64;95.26
71627;DHT22;59475;52.464;13.590;2022-10-31T00:09:58;8.61;95.12
71627;DHT22;59475;52.464;13.590;2022-10-31T00:12:23;8.57;95.37
71627;DHT22;59475;52.464;13.590;2022-10-31T00:14:49;8.53;95.52
71627;DHT22;59475;52.464;13.590;2022-10-31T00:17:14;8.48;95.49
71627;DHT22;59475;52.464;13.590;2022-10-31T00:19:40;8.48;95.60
71627;DHT22;59475;52.464;13.590;2022-10-31T00:22:05;8.44;95.60
71627;DHT22;59475;52.464;13.590;2022-10-31T00:24:30;8.50;95.57
71627;DHT22;59475;52.464;13.590;2022-10-31T00:26:56;8.50;95.35
71627;DHT22;59475;52.464;13.590;2022-10-31T00:29:21;8.48;95.48
71627;DHT22;59475;52.464;13.590;2022-10-31T00:31:46;8.45;95.66
71627;DHT22;59475;52.464;13.590;2022-10-31T00:34:12;8.41;95.81
71627;DHT22;59475;52.464;13.590;2022-10-31T00:36:37;8.38;96.12
71627;DHT22;59475;52.464;13.590;2022-10-31T00:39:02;8.34;95.88
71627;DHT22;59475;52.464;13.590;2022-10-31T00:41:28;8.29;95.94
71627;DHT22;59475;52.464;13.590;2022-10-31T00:43:54;8.24;96.11
71627;DHT22;59475;52.464;13.590;2022-10-31T00:46:20;8.23;96.00
71627;DHT22;59475;52.464;13.590;2022-10-31T00:48:45;8.27;95.98
71627;DHT22;59475;52.464;13.590;2022-10-31T00:51:10;8.27;95.86
71627;DHT22;59475;52.464;13.590;2022-10-31T00:53:36;8.22;95.65
71627;DHT22;59475;52.464;13.590;2022-10-31T00:56:02;8.20;95.95
71627;DHT22;59475;52.464;13.590;2022-10-31T00:58:27;8.19;96.05
71627;DHT22;59475;52.464;13.590;2022-10-31T01:00:53;8.14;95.97
71627;DHT22;59475;52.464;13.590;2022-10-31T01:03:26;8.13;95.86
71627;DHT22;59475;52.464;13.590;2022-10-31T01:06:09;8.09;96.02
71627;DHT22;59475;52.464;13.590;2022-10-31T01:08:36;8.06;96.32
71627;DHT22;59475;52.464;13.590;2022-10-31T01:11:08;8.03;96.31
71627;DHT22;59475;52.464;13.590;2022-10-31T01:13:35;8.03;96.47
71627;DHT22;59475;52.464;13.590;2022-10-31T01:16:01;8.03;96.25
71627;DHT22;59475;52.464;13.590;2022-10-31T01:18:27;8.02;96.08
71627;DHT22;59475;52.464;13.590;2022-10-31T01:23:28;8.02;95.87
71627;DHT22;59475;52.464;13.590;2022-10-31T01:26:13;7.96;95.91
71627;DHT22;59475;52.464;13.590;2022-10-31T01:28:43;7.93;96.08
71627;DHT22;59475;52.464;13.590;2022-10-31T01:31:09;7.93;96.27
71627;DHT22;59475;52.464;13.590;2022-10-31T01:33:36;7.89;96.33
71627;DHT22;59475;52.464;13.590;2022-10-31T01:36:11;7.88;96.24
71627;DHT22;59475;52.464;13.590;2022-10-31T01:38:37;7.85;96.31
71627;DHT22;59475;52.464;13.590;2022-10-31T01:41:02;7.83;96.18
71627;DHT22;59475;52.464;13.590;2022-10-31T01:43:52;7.82;96.13
71627;DHT22;59475;52.464;13.590;2022-10-31T01:46:22;7.78;96.30
71627;DHT22;59475;52.464;13.590;2022-10-31T01:48:48;7.79;96.39
71627;DHT22;59475;52.464;13.590;2022-10-31T01:51:16;7.78;96.36
71627;DHT22;59475;52.464;13.590;2022-10-31T01:53:44;7.78;96.22
71627;DHT22;59475;52.464;13.590;2022-10-31T01:56:10;7.79;96.22
71627;DHT22;59475;52.464;13.590;2022-10-31T01:58:35;7.79;96.14
71627;DHT22;59475;52.464;13.590;2022-10-31T02:01:01;7.76;96.05
71627;DHT22;59475;52.464;13.590;2022-10-31T02:03:27;7.74;95.92
71627;DHT22;59475;52.464;13.590;2022-10-31T02:05:54;7.76;95.86
71627;DHT22;59475;52.464;13.590;2022-10-31T02:08:26;7.75;95.87
71627;DHT22;59475;52.464;13.590;2022-10-31T02:10:53;7.78;95.75
71627;DHT22;59475;52.464;13.590;2022-10-31T02:13:19;7.81;95.75
71627;DHT22;59475;52.464;13.590;2022-10-31T02:15:47;7.75;95.85
71627;DHT22;59475;52.464;13.590;2022-10-31T02:18:14;7.72;96.31
71627;DHT22;59475;52.464;13.590;2022-10-31T02:27:07;7.65;96.35
71627;DHT22;59475;52.464;13.590;2022-10-31T02:35:08;7.62;96.00
71627;DHT22;59475;52.464;13.590;2022-10-31T02:38:04;7.64;95.94
71627;DHT22;59475;52.464;13.590;2022-10-31T02:40:34;7.59;95.72
71627;DHT22;59475;52.464;13.590;2022-10-31T02:43:15;7.58;95.79
71627;DHT22;59475;52.464;13.590;2022-10-31T02:46:04;7.58;95.58
71627;DHT22;59475;52.464;13.590;2022-10-31T02:48:33;7.57;95.57
71627;DHT22;59475;52.464;13.590;2022-10-31T02:51:03;7.58;95.64
71627;DHT22;59475;52.464;13.590;2022-10-31T02:53:33;7.58;95.87
71627;DHT22;59475;52.464;13.590;2022-10-31T02:56:02;7.57;95.90
71627;DHT22;59475;52.464;13.590;2022-10-31T02:58:32;7.51;96.05
71627;DHT22;59475;52.464;13.590;2022-10-31T03:03:53;7.50;96.20
71627;DHT22;59475;52.464;13.590;2022-10-31T03:06:29;7.54;95.95
71627;DHT22;59475;52.464;13.590;2022-10-31T03:09:03;7.55;95.66
71627;DHT22;59475;52.464;13.590;2022-10-31T03:11:46;7.52;95.54
71627;DHT22;59475;52.464;13.590;2022-10-31T03:14:21;7.48;95.61
71627;DHT22;59475;52.464;13.590;2022-10-31T03:16:49;7.50;96.04
71627;DHT22;59475;52.464;13.590;2022-10-31T03:22:09;7.46;96.25
71627;DHT22;59475;52.464;13.590;2022-10-31T03:24:37;7.41;96.18
71627;DHT22;59475;52.464;13.590;2022-10-31T03:27:05;7.41;96.19
71627;DHT22;59475;52.464;13.590;2022-10-31T03:29:34;7.41;96.12
71627;DHT22;59475;52.464;13.590;2022-10-31T03:32:04;7.44;95.96
71627;DHT22;59475;52.464;13.590;2022-10-31T03:34:31;7.46;95.91
71627;DHT22;59475;52.464;13.590;2022-10-31T03:37:01;7.44;95.79
71627;DHT22;59475;52.464;13.590;2022-10-31T03:39:27;7.43;95.94
71627;DHT22;59475;52.464;13.590;2022-10-31T03:42:06;7.43;96.19
71627;DHT22;59475;52.464;13.590;2022-10-31T03:44:33;7.37;96.11
71627;DHT22;59475;52.464;13.590;2022-10-31T03:47:01;7.37;96.13
71627;DHT22;59475;52.464;13.590;2022-10-31T03:49:28;7.35;96.09
71627;DHT22;59475;52.464;13.590;2022-10-31T03:52:04;7.37;96.04
71627;DHT22;59475;52.464;13.590;2022-10-31T03:54:41;7.37;96.31
71627;DHT22;59475;52.464;13.590;2022-10-31T03:59:57;7.35;96.22
71627;DHT22;59475;52.464;13.590;2022-10-31T04:02:30;7.34;96.16
71627;DHT22;59475;52.464;13.590;2022-10-31T04:04:56;7.32;96.26
71627;DHT22;59475;52.464;13.590;2022-10-31T04:07:27;7.34;96.40
71627;DHT22;59475;52.464;13.590;2022-10-31T04:09:53;7.32;96.40
71627;DHT22;59475;52.464;13.590;2022-10-31T04:12:20;7.37;96.40
71627;DHT22;59475;52.464;13.590;2022-10-31T04:14:47;7.38;96.23
71627;DHT22;59475;52.464;13.590;2022-10-31T04:17:16;7.38;96.05
71627;DHT22;59475;52.464;13.590;2022-10-31T04:19:42;7.35;96.03
71627;DHT22;59475;52.464;13.590;2022-10-31T04:22:07;7.38;95.90
71627;DHT22;59475;52.464;13.590;2022-10-31T04:24:33;7.40;96.06
71627;DHT22;59475;52.464;13.590;2022-10-31T04:26:58;7.44;96.05
71627;DHT22;59475;52.464;13.590;2022-10-31T04:29:23;7.46;96.12
71627;DHT22;59475;52.464;13.590;2022-10-31T04:31:49;7.40;96.08
71627;DHT22;59475;52.464;13.590;2022-10-31T04:34:14;7.37;96.09
71627;DHT22;59475;52.464;13.590;2022-10-31T04:36:39;7.31;96.23
71627;DHT22;59475;52.464;13.590;2022-10-31T04:39:05;7.31;96.29
71627;DHT22;59475;52.464;13.590;2022-10-31T04:41:30;7.27;96.24
71627;DHT22;59475;52.464;13.590;2022-10-31T04:43:55;7.26;96.43
71627;DHT22;59475;52.464;13.590;2022-10-31T04:46:21;7.23;96.56
71627;DHT22;59475;52.464;13.590;2022-10-31T04:48:46;7.20;96.64
71627;DHT22;59475;52.464;13.590;2022-10-31T04:51:11;7.23;96.72
71627;DHT22;59475;52.464;13.590;2022-10-31T04:53:37;7.27;96.60
71627;DHT22;59475;52.464;13.590;2022-10-31T04:56:02;7.26;96.43
71627;DHT22;59475;52.464;13.590;2022-10-31T04:58:27;7.23;96.34
71627;DHT22;59475;52.464;13.590;2022-10-31T05:00:54;7.23;96.32
71627;DHT22;59475;52.464;13.590;2022-10-31T05:03:19;7.23;96.22
71627;DHT22;59475;52.464;13.590;2022-10-31T05:05:45;7.21;96.14
71627;DHT22;59475;52.464;13.590;2022-10-31T05:08:10;7.16;96.22
71627;DHT22;59475;52.464;13.590;2022-10-31T05:10:36;7.17;96.46
71627;DHT22;59475;52.464;13.590;2022-10-31T05:13:03;7.16;96.64
71627;DHT22;59475;52.464;13.590;2022-10-31T05:15:29;7.14;96.89
71627;DHT22;59475;52.464;13.590;2022-10-31T05:17:54;7.13;97.07
71627;DHT22;59475;52.464;13.590;2022-10-31T05:20:22;7.10;97.01
71627;DHT22;59475;52.464;13.590;2022-10-31T05:22:50;7.10;96.85
71627;DHT22;59475;52.464;13.590;2022-10-31T05:25:17;7.13;96.86
71627;DHT22;59475;52.464;13.590;2022-10-31T05:27:44;7.14;96.77
71627;DHT22;59475;52.464;13.590;2022-10-31T05:30:12;7.13;96.56
71627;DHT22;59475;52.464;13.590;2022-10-31T05:32:39;7.14;96.45
71627;DHT22;59475;52.464;13.590;2022-10-31T05:35:05;7.10;96.40
71627;DHT22;59475;52.464;13.590;2022-10-31T05:37:33;7.09;96.40
71627;DHT22;59475;52.464;13.590;2022-10-31T05:39:59;7.09;96.33
71627;DHT22;59475;52.464;13.590;2022-10-31T05:42:24;7.14;96.22
71627;DHT22;59475;52.464;13.590;2022-10-31T05:44:49;7.13;96.22
71627;DHT22;59475;52.464;13.590;2022-10-31T05:47:16;7.13;96.27
71627;DHT22;59475;52.464;13.590;2022-10-31T05:49:41;7.12;96.30
71627;DHT22;59475;52.464;13.590;2022-10-31T05:52:06;7.13;96.32
71627;DHT22;59475;52.464;13.590;2022-10-31T05:54:32;7.10;96.25
71627;DHT22;59475;52.464;13.590;2022-10-31T05:56:57;7.13;96.20
71627;DHT22;59475;52.464;13.590;2022-10-31T05:59:22;7.14;96.69
71627;DHT22;59475;52.464;13.590;2022-10-31T06:01:48;7.13;96.71
71627;DHT22;59475;52.464;13.590;2022-10-31T06:04:13;7.13;96.71
71627;DHT22;59475;52.464;13.590;2022-10-31T06:06:38;7.13;96.72
71627;DHT22;59475;52.464;13.590;2022-10-31T06:09:03;7.17;96.78
71627;DHT22;59475;52.464;13.590;2022-10-31T06:11:29;7.20;96.69
71627;DHT22;59475;52.464;13.590;2022-10-31T06:13:54;7.23;96.65
71627;DHT22;59475;52.464;13.590;2022-10-31T06:16:19;7.21;96.54
71627;DHT22;59475;52.464;13.590;2022-10-31T06:18:46;7.24;96.48
71627;DHT22;59475;52.464;13.590;2022-10-31T06:21:11;7.21;96.84
71627;DHT22;59475;52.464;13.590;2022-10-31T06:23:36;7.23;96.96
71627;DHT22;59475;52.464;13.590;2022-10-31T06:26:01;7.27;96.99
71627;DHT22;59475;52.464;13.590;2022-10-31T06:28:28;7.30;96.88
71627;DHT22;59475;52.464;13.590;2022-10-31T06:30:53;7.32;96.96
71627;DHT22;59475;52.464;13.590;2022-10-31T06:33:18;7.32;97.03
71627;DHT22;59475;52.464;13.590;2022-10-31T06:35:47;7.38;97.03
71627;DHT22;59475;52.464;13.590;2022-10-31T06:38:13;7.40;97.05
71627;DHT22;59475;52.464;13.590;2022-10-31T06:40:39;7.46;97.05
71627;DHT22;59475;52.464;13.590;2022-10-31T06:43:04;7.50;97.11
71627;DHT22;59475;52.464;13.590;2022-10-31T06:45:29;7.57;97.16
71627;DHT22;59475;52.464;13.590;2022-10-31T06:47:56;7.64;97.18
71627;DHT22;59475;52.464;13.590;2022-10-31T06:50:22;7.71;97.12
71627;DHT22;59475;52.464;13.590;2022-10-31T06:52:57;7.78;97.14
71627;DHT22;59475;52.464;13.590;2022-10-31T06:55:23;7.85;97.10
71627;DHT22;59475;52.464;13.590;2022-10-31T06:57:59;7.90;97.06
71627;DHT22;59475;52.464;13.590;2022-10-31T07:00:27;7.99;97.13
71627;DHT22;59475;52.464;13.590;2022-10-31T07:03:00;8.03;97.11
71627;DHT22;59475;52.464;13.590;2022-10-31T07:05:27;8.12;97.15
71627;DHT22;59475;52.464;13.590;2022-10-31T07:08:04;8.16;97.16
71627;DHT22;59475;52.464;13.590;2022-10-31T07:10:31;8.26;97.37
71627;DHT22;59475;52.464;13.590;2022-10-31T07:12:58;8.37;97.74
71627;DHT22;59475;52.464;13.590;2022-10-31T07:15:26;8.45;97.67
71627;DHT22;59475;52.464;13.590;2022-10-31T07:17:51;8.55;97.70
71627;DHT22;59475;52.464;13.590;2022-10-31T07:20:17;8.61;97.68
71627;DHT22;59475;52.464;13.590;2022-10-31T07:22:42;8.71;97.70
71627;DHT22;59475;52.464;13.590;2022-10-31T07:25:08;8.86;98.34
71627;DHT22;59475;52.464;13.590;2022-10-31T07:27:41;8.98;98.18
71627;DHT22;59475;52.464;13.590;2022-10-31T07:30:08;9.10;98.18
71627;DHT22;59475;52.464;13.590;2022-10-31T07:32:40;9.19;98.29
71627;DHT22;59475;52.464;13.590;2022-10-31T07:35:08;9.31;98.33
71627;DHT22;59475;52.464;13.590;2022-10-31T07:37:33;9.47;98.50
71627;DHT22;59475;52.464;13.590;2022-10-31T07:39:59;9.62;98.54
71627;DHT22;59475;52.464;13.590;2022-10-31T07:42:24;9.82;98.51
71627;DHT22;59475;52.464;13.590;2022-10-31T07:44:49;10.06;98.91
71627;DHT22;59475;52.464;13.590;2022-10-31T07:47:15;10.33;98.97
71627;DHT22;59475;52.464;13.590;2022-10-31T07:49:40;10.60;98.89
71627;DHT22;59475;52.464;13.590;2022-10-31T07:52:05;11.04;99.85
71627;DHT22;59475;52.464;13.590;2022-10-31T07:54:31;11.44;99.99
71627;DHT22;59475;52.464;13.590;2022-10-31T07:56:56;11.78;99.82
71627;DHT22;59475;52.464;13.590;2022-10-31T07:59:21;12.06;99.53
71627;DHT22;59475;52.464;13.590;2022-10-31T08:01:47;12.35;99.36
71627;DHT22;59475;52.464;13.590;2022-10-31T08:04:12;12.63;99.04
71627;DHT22;59475;52.464;13.590;2022-10-31T08:06:38;12.80;98.36
71627;DHT22;59475;52.464;13.590;2022-10-31T08:09:03;13.05;97.36
71627;DHT22;59475;52.464;13.590;2022-10-31T08:11:28;13.21;97.18
71627;DHT22;59475;52.464;13.590;2022-10-31T08:13:54;13.40;96.20
71627;DHT22;59475;52.464;13.590;2022-10-31T08:16:19;13.52;95.93
71627;DHT22;59475;52.464;13.590;2022-10-31T08:18:44;13.60;95.12
71627;DHT22;59475;52.464;13.590;2022-10-31T08:21:10;13.69;94.99
71627;DHT22;59475;52.464;13.590;2022-10-31T08:23:35;13.76;94.88
71627;DHT22;59475;52.464;13.590;2022-10-31T08:26:01;13.81;94.73
71627;DHT22;59475;52.464;13.590;2022-10-31T08:28:26;13.85;94.19
71627;DHT22;59475;52.464;13.590;2022-10-31T08:30:51;13.88;94.66
71627;DHT22;59475;52.464;13.590;2022-10-31T08:33:18;13.91;94.46
71627;DHT22;59475;52.464;13.590;2022-10-31T08:35:44;13.93;94.28
71627;DHT22;59475;52.464;13.590;2022-10-31T08:38:11;13.98;94.47
71627;DHT22;59475;52.464;13.590;2022-10-31T08:40:38;14.00;94.97
71627;DHT22;59475;52.464;13.590;2022-10-31T08:43:05;14.04;94.60
71627;DHT22;59475;52.464;13.590;2022-10-31T08:45:32;14.11;94.96
71627;DHT22;59475;52.464;13.590;2022-10-31T08:48:11;14.20;95.13
71627;DHT22;59475;52.464;13.590;2022-10-31T08:50:37;14.28;94.54
71627;DHT22;59475;52.464;13.590;2022-10-31T08:53:08;14.29;93.75
71627;DHT22;59475;52.464;13.590;2022-10-31T08:55:35;14.35;93.67
71627;DHT22;59475;52.464;13.590;2022-10-31T08:58:01;14.50;93.96
71627;DHT22;59475;52.464;13.590;2022-10-31T09:00:26;14.59;92.85
71627;DHT22;59475;52.464;13.590;2022-10-31T09:02:59;14.73;91.62
71627;DHT22;59475;52.464;13.590;2022-10-31T09:05:25;14.79;92.36
71627;DHT22;59475;52.464;13.590;2022-10-31T09:07:51;14.96;90.92
71627;DHT22;59475;52.464;13.590;2022-10-31T09:10:16;15.08;90.57
71627;DHT22;59475;52.464;13.590;2022-10-31T09:12:41;15.25;92.19
71627;DHT22;59475;52.464;13.590;2022-10-31T09:15:07;15.45;89.38
71627;DHT22;59475;52.464;13.590;2022-10-31T09:17:33;15.59;89.31
71627;DHT22;59475;52.464;13.590;2022-10-31T09:19:58;15.83;88.82
71627;DHT22;59475;52.464;13.590;2022-10-31T09:22:23;15.85;87.17
71627;DHT22;59475;52.464;13.590;2022-10-31T09:24:49;15.85;87.28
71627;DHT22;59475;52.464;13.590;2022-10-31T09:27:15;15.79;87.45
71627;DHT22;59475;52.464;13.590;2022-10-31T09:29:42;15.73;87.51
71627;DHT22;59475;52.464;13.590;2022-10-31T09:32:07;15.72;87.56
71627;DHT22;59475;52.464;13.590;2022-10-31T09:34:32;15.59;87.97
71627;DHT22;59475;52.464;13.590;2022-10-31T09:36:57;15.61;88.32
71627;DHT22;59475;52.464;13.590;2022-10-31T09:39:23;15.67;89.45
71627;DHT22;59475;52.464;13.590;2022-10-31T09:47:21;15.73;88.46
71627;DHT22;59475;52.464;13.590;2022-10-31T09:52:54;15.91;87.31
71627;DHT22;59475;52.464;13.590;2022-10-31T09:55:34;16.18;90.04
71627;DHT22;59475;52.464;13.590;2022-10-31T09:58:01;16.49;87.19
71627;DHT22;59475;52.464;13.590;2022-10-31T10:00:26;16.56;85.07
71627;DHT22;59475;52.464;13.590;2022-10-31T10:05:34;16.96;84.03
71627;DHT22;59475;52.464;13.590;2022-10-31T10:08:16;16.94;84.31
71627;DHT22;59475;52.464;13.590;2022-10-31T10:13:55;16.83;84.31
71627;DHT22;59475;52.464;13.590;2022-10-31T10:19:33;16.66;84.11
71627;DHT22;59475;52.464;13.590;2022-10-31T10:28:22;16.42;84.92
71627;DHT22;59475;52.464;13.590;2022-10-31T10:30:51;16.40;84.79
71627;DHT22;59475;52.464;13.590;2022-10-31T10:34:06;16.45;84.90
71627;DHT22;59475;52.464;13.590;2022-10-31T10:36:12;16.62;84.60
71627;DHT22;59475;52.464;13.590;2022-10-31T10:39:02;16.87;83.67
71627;DHT22;59475;52.464;13.590;2022-10-31T10:41:31;17.02;82.30
71627;DHT22;59475;52.464;13.590;2022-10-31T10:43:57;17.06;82.23
71627;DHT22;59475;52.464;13.590;2022-10-31T10:46:42;17.32;82.04
71627;DHT22;59475;52.464;13.590;2022-10-31T10:52:27;17.41;80.07
71627;DHT22;59475;52.464;13.590;2022-10-31T11:00:19;17.23;81.20
71627;DHT22;59475;52.464;13.590;2022-10-31T11:02:45;17.14;80.82
71627;DHT22;59475;52.464;13.590;2022-10-31T11:08:30;17.00;82.06
71627;DHT22;59475;52.464;13.590;2022-10-31T11:10:58;16.92;82.39
71627;DHT22;59475;52.464;13.590;2022-10-31T11:13:24;16.84;82.35
71627;DHT22;59475;52.464;13.590;2022-10-31T11:16:07;16.75;82.71
71627;DHT22;59475;52.464;13.590;2022-10-31T11:18:37;16.68;83.04
71627;DHT22;59475;52.464;13.590;2022-10-31T11:21:04;16.69;83.12
71627;DHT22;59475;52.464;13.590;2022-10-31T11:23:31;16.80;83.43
71627;DHT22;59475;52.464;13.590;2022-10-31T11:25:59;17.02;82.95
71627;DHT22;59475;52.464;13.590;2022-10-31T11:28:27;17.32;83.29
71627;DHT22;59475;52.464;13.590;2022-10-31T11:30:59;17.71;82.91
71627;DHT22;59475;52.464;13.590;2022-10-31T11:33:31;18.00;79.83
71627;DHT22;59475;52.464;13.590;2022-10-31T11:35:58;18.17;79.43
71627;DHT22;59475;52.464;13.590;2022-10-31T11:38:31;18.29;78.27
71627;DHT22;59475;52.464;13.590;2022-10-31T11:41:05;18.43;78.26
71627;DHT22;59475;52.464;13.590;2022-10-31T11:43:33;18.60;77.38
71627;DHT22;59475;52.464;13.590;2022-10-31T11:45:59;18.65;77.19
71627;DHT22;59475;52.464;13.590;2022-10-31T11:48:24;18.75;76.59
71627;DHT22;59475;52.464;13.590;2022-10-31T11:50:54;18.62;76.79
71627;DHT22;59475;52.464;13.590;2022-10-31T11:53:28;18.67;76.99
71627;DHT22;59475;52.464;13.590;2022-10-31T11:56:15;18.73;76.76
71627;DHT22;59475;52.464;13.590;2022-10-31T11:58:41;18.79;76.88
71627;DHT22;59475;52.464;13.590;2022-10-31T12:01:26;18.94;76.28
71627;DHT22;59475;52.464;13.590;2022-10-31T12:04:10;18.62;76.25
71627;DHT22;59475;52.464;13.590;2022-10-31T12:06:41;18.34;77.05
71627;DHT22;59475;52.464;13.590;2022-10-31T12:17:23;18.22;78.44
71627;DHT22;59475;52.464;13.590;2022-10-31T12:20:06;18.22;78.04
71627;DHT22;59475;52.464;13.590;2022-10-31T12:25:47;18.02;78.78
71627;DHT22;59475;52.464;13.590;2022-10-31T12:37:35;18.00;79.60
71627;DHT22;59475;52.464;13.590;2022-10-31T12:51:00;18.04;78.43
71627;DHT22;59475;52.464;13.590;2022-10-31T12:53:41;18.03;78.84
71627;DHT22;59475;52.464;13.590;2022-10-31T12:56:31;17.95;78.77
71627;DHT22;59475;52.464;13.590;2022-10-31T12:59:14;17.92;78.59
71627;DHT22;59475;52.464;13.590;2022-10-31T13:01:49;17.92;78.72
71627;DHT22;59475;52.464;13.590;2022-10-31T13:04:30;17.93;78.77
71627;DHT22;59475;52.464;13.590;2022-10-31T13:07:02;17.99;78.62
71627;DHT22;59475;52.464;13.590;2022-10-31T13:09:53;18.00;78.78
71627;DHT22;59475;52.464;13.590;2022-10-31T13:12:21;18.12;78.65
71627;DHT22;59475;52.464;13.590;2022-10-31T13:14:59;18.14;78.17
71627;DHT22;59475;52.464;13.590;2022-10-31T13:17:31;18.17;77.96
71627;DHT22;59475;52.464;13.590;2022-10-31T13:22:39;18.06;78.32
71627;DHT22;59475;52.464;13.590;2022-10-31T13:30:36;18.06;78.89
71627;DHT22;59475;52.464;13.590;2022-10-31T13:33:26;18.09;78.57
71627;DHT22;59475;52.464;13.590;2022-10-31T13:44:20;17.97;79.12
71627;DHT22;59475;52.464;13.590;2022-10-31T13:46:49;17.95;79.00
71627;DHT22;59475;52.464;13.590;2022-10-31T13:49:24;17.90;79.05
71627;DHT22;59475;52.464;13.590;2022-10-31T13:51:50;17.90;79.81
71627;DHT22;59475;52.464;13.590;2022-10-31T13:54:32;17.92;79.89
71627;DHT22;59475;52.464;13.590;2022-10-31T13:56:58;17.92;79.92
71627;DHT22;59475;52.464;13.590;2022-10-31T13:59:25;17.90;80.51
71627;DHT22;59475;52.464;13.590;2022-10-31T14:02:00;17.82;80.82
71627;DHT22;59475;52.464;13.590;2022-10-31T14:04:35;17.78;80.57
71627;DHT22;59475;52.464;13.590;2022-10-31T14:07:05;17.74;80.88
71627;DHT22;59475;52.464;13.590;2022-10-31T14:12:06;17.68;81.37
71627;DHT22;59475;52.464;13.590;2022-10-31T14:14:44;17.58;81.66
71627;DHT22;59475;52.464;13.590;2022-10-31T14:17:38;17.51;81.93
71627;DHT22;59475;52.464;13.590;2022-10-31T14:22:37;17.34;82.39
71627;DHT22;59475;52.464;13.590;2022-10-31T14:25:25;17.23;83.07
71627;DHT22;59475;52.464;13.590;2022-10-31T14:27:50;17.14;83.12
71627;DHT22;59475;52.464;13.590;2022-10-31T14:30:20;17.11;84.38
71627;DHT22;59475;52.464;13.590;2022-10-31T14:32:53;17.03;84.25
71627;DHT22;59475;52.464;13.590;2022-10-31T14:35:20;16.94;84.38
71627;DHT22;59475;52.464;13.590;2022-10-31T14:38:03;16.87;84.32
71627;DHT22;59475;52.464;13.590;2022-10-31T14:40:42;16.80;84.90
71627;DHT22;59475;52.464;13.590;2022-10-31T14:43:38;16.71;85.74
71627;DHT22;59475;52.464;13.590;2022-10-31T14:51:01;16.42;87.56
71627;DHT22;59475;52.464;13.590;2022-10-31T14:53:31;16.32;86.86
71627;DHT22;59475;52.464;13.590;2022-10-31T14:55:58;16.25;87.14
71627;DHT22;59475;52.464;13.590;2022-10-31T14:58:35;16.16;87.19
71627;DHT22;59475;52.464;13.590;2022-10-31T15:01:02;16.06;88.42
71627;DHT22;59475;52.464;13.590;2022-10-31T15:03:36;15.99;87.40
71627;DHT22;59475;52.464;13.590;2022-10-31T15:06:10;15.93;87.82
71627;DHT22;59475;52.464;13.590;2022-10-31T15:08:47;15.85;87.67
71627;DHT22;59475;52.464;13.590;2022-10-31T15:13:49;15.69;90.05
71627;DHT22;59475;52.464;13.590;2022-10-31T15:16:21;15.66;90.27
71627;DHT22;59475;52.464;13.590;2022-10-31T15:18:53;15.61;89.45
71627;DHT22;59475;52.464;13.590;2022-10-31T15:21:21;15.51;88.96
71627;DHT22;59475;52.464;13.590;2022-10-31T15:23:47;15.45;88.69
71627;DHT22;59475;52.464;13.590;2022-10-31T15:26:17;15.36;88.47
71627;DHT22;59475;52.464;13.590;2022-10-31T15:28:44;15.30;88.45
71627;DHT22;59475;52.464;13.590;2022-10-31T15:31:15;15.20;88.59
71627;DHT22;59475;52.464;13.590;2022-10-31T15:33:42;15.12;88.81
71627;DHT22;59475;52.464;13.590;2022-10-31T15:36:21;15.03;89.11
71627;DHT22;59475;52.464;13.590;2022-10-31T15:38:48;14.97;89.07
71627;DHT22;59475;52.464;13.590;2022-10-31T15:41:26;14.87;89.46
71627;DHT22;59475;52.464;13.590;2022-10-31T15:43:53;14.77;89.57
71627;DHT22;59475;52.464;13.590;2022-10-31T15:46:19;14.81;91.59
71627;DHT22;59475;52.464;13.590;2022-10-31T15:48:46;14.77;90.79
71627;DHT22;59475;52.464;13.590;2022-10-31T15:51:12;14.68;90.41
71627;DHT22;59475;52.464;13.590;2022-10-31T15:53:45;14.59;90.30
71627;DHT22;59475;52.464;13.590;2022-10-31T15:56:20;14.46;90.24
71627;DHT22;59475;52.464;13.590;2022-10-31T15:58:49;14.39;90.22
71627;DHT22;59475;52.464;13.590;2022-10-31T16:01:27;14.29;90.26
71627;DHT22;59475;52.464;13.590;2022-10-31T16:04:02;14.20;90.33
71627;DHT22;59475;52.464;13.590;2022-10-31T16:06:28;14.12;90.47
71627;DHT22;59475;52.464;13.590;2022-10-31T16:08:53;14.08;90.47
71627;DHT22;59475;52.464;13.590;2022-10-31T16:11:27;14.03;90.64
71627;DHT22;59475;52.464;13.590;2022-10-31T16:14:06;13.97;91.85
71627;DHT22;59475;52.464;13.590;2022-10-31T16:16:39;14.00;92.98
71627;DHT22;59475;52.464;13.590;2022-10-31T16:19:14;13.94;92.63
71627;DHT22;59475;52.464;13.590;2022-10-31T16:21:40;13.88;92.67
71627;DHT22;59475;52.464;13.590;2022-10-31T16:24:26;13.90;92.75
71627;DHT22;59475;52.464;13.590;2022-10-31T16:26:56;13.85;92.81
71627;DHT22;59475;52.464;13.590;2022-10-31T16:29:32;13.73;92.44
71627;DHT22;59475;52.464;13.590;2022-10-31T16:31:57;13.65;92.30
71627;DHT22;59475;52.464;13.590;2022-10-31T16:34:23;13.57;93.27
71627;DHT22;59475;52.464;13.590;2022-10-31T16:36:49;13.59;92.97
71627;DHT22;59475;52.464;13.590;2022-10-31T16:39:15;13.52;92.82
71627;DHT22;59475;52.464;13.590;2022-10-31T16:41:44;13.45;92.61
71627;DHT22;59475;52.464;13.590;2022-10-31T16:44:24;13.34;93.72
71627;DHT22;59475;52.464;13.590;2022-10-31T16:47:12;13.29;92.86
71627;DHT22;59475;52.464;13.590;2022-10-31T16:49:38;13.25;92.91
71627;DHT22;59475;52.464;13.590;2022-10-31T16:52:03;13.22;93.61
71627;DHT22;59475;52.464;13.590;2022-10-31T16:54:29;13.16;93.58
71627;DHT22;59475;52.464;13.590;2022-10-31T16:56:54;13.09;93.11
71627;DHT22;59475;52.464;13.590;2022-10-31T16:59:20;13.01;93.13
71627;DHT22;59475;52.464;13.590;2022-10-31T17:01:48;12.97;93.08
71627;DHT22;59475;52.464;13.590;2022-10-31T17:04:14;12.90;93.46
71627;DHT22;59475;52.464;13.590;2022-10-31T17:06:40;12.83;93.24
71627;DHT22;59475;52.464;13.590;2022-10-31T17:09:05;12.80;93.86
71627;DHT22;59475;52.464;13.590;2022-10-31T17:11:31;12.77;94.03
71627;DHT22;59475;52.464;13.590;2022-10-31T17:13:57;12.73;93.70
71627;DHT22;59475;52.464;13.590;2022-10-31T17:16:22;12.64;94.09
71627;DHT22;59475;52.464;13.590;2022-10-31T17:18:48;12.60;94.11
71627;DHT22;59475;52.464;13.590;2022-10-31T17:21:18;12.56;93.75
71627;DHT22;59475;52.464;13.590;2022-10-31T17:23:44;12.49;93.54
71627;DHT22;59475;52.464;13.590;2022-10-31T17:26:09;12.46;93.38
71627;DHT22;59475;52.464;13.590;2022-10-31T17:28:35;12.43;94.05
71627;DHT22;59475;52.464;13.590;2022-10-31T17:31:00;12.47;94.77
71627;DHT22;59475;52.464;13.590;2022-10-31T17:33:26;12.43;94.88